createdAt,value
2018-07-21T00:03:21.057Z,23.90
2018-07-21T00:05:24.184Z,23.80
2018-07-21T00:07:27.330Z,23.60
2018-07-21T00:11:33.328Z,23.50
2018-07-21T00:13:36.516Z,23.50
2018-07-21T00:15:39.624Z,23.60
2018-07-21T00:17:43.415Z,23.50
2018-07-21T00:19:46.511Z,23.50
2018-07-21T00:23:52.563Z,23.50
2018-07-21T00:38:13.317Z,23.30
2018-07-21T00:40:16.407Z,23.10
2018-07-21T00:42:19.512Z,23.00
2018-07-21T00:44:22.611Z,22.90
2018-07-21T00:46:25.696Z,22.80
2018-07-21T00:48:28.803Z,22.70
2018-07-21T00:50:31.884Z,22.70
2018-07-21T00:52:35.124Z,22.70
2018-07-21T00:54:38.208Z,22.80
2018-07-21T00:56:41.311Z,22.80
2018-07-21T01:00:47.315Z,22.90
2018-07-21T01:02:50.460Z,22.90
2018-07-21T01:04:53.600Z,22.90
2018-07-21T01:06:56.829Z,22.90
2018-07-21T01:08:59.971Z,22.90
2018-07-21T01:11:03.152Z,22.80
2018-07-21T01:13:06.247Z,22.80
2018-07-21T01:15:09.983Z,22.60
2018-07-21T01:23:21.927Z,22.20
2018-07-21T01:25:25.060Z,22.20
2018-07-21T01:27:28.313Z,22.20
2018-07-21T01:29:31.423Z,22.20
2018-07-21T01:31:34.563Z,22.20
2018-07-21T01:33:37.699Z,22.20
2018-07-21T01:35:40.883Z,22.30
2018-07-21T01:37:44.020Z,22.40
2018-07-21T01:39:47.156Z,22.40
2018-07-21T01:41:50.287Z,22.50
2018-07-21T01:43:53.432Z,22.50
2018-07-21T01:45:56.679Z,22.60
2018-07-21T01:47:59.816Z,22.50
2018-07-21T01:50:02.988Z,22.40
2018-07-21T01:52:06.131Z,22.40
2018-07-21T01:54:09.319Z,22.40
2018-07-21T01:56:12.472Z,22.40
2018-07-21T01:58:15.590Z,22.50
2018-07-21T02:00:18.715Z,22.50
2018-07-21T02:02:21.817Z,22.50
2018-07-21T02:04:25.059Z,22.50
2018-07-21T02:06:28.179Z,22.60
2018-07-21T02:08:32.175Z,22.60
2018-07-21T02:10:35.267Z,22.50
2018-07-21T02:12:38.365Z,22.50
2018-07-21T02:14:41.428Z,22.50
2018-07-21T02:16:44.521Z,22.50
2018-07-21T02:18:47.625Z,22.50
2018-07-21T02:20:50.712Z,22.40
2018-07-21T02:22:53.788Z,22.40
2018-07-21T02:24:56.871Z,22.20
2018-07-21T02:26:59.954Z,22.10
2018-07-21T02:29:03.052Z,22.00
2018-07-21T02:35:11.933Z,21.90
2018-07-21T02:37:15.020Z,21.90
2018-07-21T02:39:18.117Z,21.90
2018-07-21T02:43:24.183Z,22.00
2018-07-21T02:45:27.286Z,22.00
2018-07-21T02:47:30.531Z,21.90
2018-07-21T02:49:33.648Z,21.90
2018-07-21T02:53:40.243Z,21.90
2018-07-21T02:55:43.332Z,21.80
2018-07-21T02:57:46.424Z,21.70
2018-07-21T02:59:49.515Z,21.60
2018-07-21T03:03:55.684Z,21.60
2018-07-21T03:05:59.589Z,21.50
2018-07-21T03:08:02.727Z,21.40
2018-07-21T03:10:05.967Z,21.30
2018-07-21T03:12:09.340Z,21.40
2018-07-21T03:14:12.499Z,21.50
2018-07-21T03:16:15.642Z,21.50
2018-07-21T03:18:18.804Z,21.50
2018-07-21T03:20:21.949Z,21.50
2018-07-21T03:22:25.076Z,21.50
2018-07-21T03:24:28.292Z,21.50
2018-07-21T03:26:31.432Z,21.50
2018-07-21T03:28:34.600Z,21.50
2018-07-21T03:30:37.751Z,21.40
2018-07-21T03:32:40.900Z,21.40
2018-07-21T03:34:44.236Z,21.30
2018-07-21T03:36:47.380Z,21.30
2018-07-21T03:38:50.538Z,21.30
2018-07-21T03:40:53.682Z,21.30
2018-07-21T03:42:56.821Z,21.20
2018-07-21T03:44:59.956Z,21.20
2018-07-21T03:47:03.105Z,21.20
2018-07-21T03:49:06.245Z,21.20
2018-07-21T03:51:09.416Z,21.30
2018-07-21T03:53:12.547Z,21.30
2018-07-21T03:55:15.701Z,21.30
2018-07-21T04:01:25.172Z,21.20
2018-07-21T04:03:28.323Z,21.10
2018-07-21T04:05:31.464Z,21.10
2018-07-21T04:07:34.618Z,21.10
2018-07-21T04:09:37.801Z,21.10
2018-07-21T04:11:40.936Z,21.10
2018-07-21T04:13:44.099Z,21.10
2018-07-21T04:15:47.280Z,21.20
2018-07-21T04:17:50.424Z,21.20
2018-07-21T04:19:54.044Z,21.20
2018-07-21T04:21:57.168Z,21.30
2018-07-21T04:24:00.344Z,21.40
2018-07-21T04:28:06.449Z,21.40
2018-07-21T04:30:09.583Z,21.30
2018-07-21T04:32:12.744Z,21.30
2018-07-21T04:38:21.796Z,21.30
2018-07-21T04:40:25.516Z,21.20
2018-07-21T04:42:28.664Z,21.30
2018-07-21T04:44:31.831Z,21.30
2018-07-21T04:46:34.984Z,21.30
2018-07-21T04:48:38.132Z,21.20
2018-07-21T04:50:41.288Z,21.20
2018-07-21T04:52:44.460Z,21.20
2018-07-21T04:54:47.600Z,21.20
2018-07-21T04:56:50.744Z,21.30
2018-07-21T04:58:53.920Z,21.30
2018-07-21T05:00:57.108Z,21.20
2018-07-21T05:03:00.203Z,21.30
2018-07-21T05:05:03.379Z,21.30
2018-07-21T05:07:06.516Z,21.30
2018-07-21T05:09:11.350Z,21.30
2018-07-21T05:11:14.491Z,21.30
2018-07-21T05:13:17.643Z,21.40
2018-07-21T05:15:20.792Z,21.40
2018-07-21T05:17:23.952Z,21.50
2018-07-21T05:19:27.102Z,21.50
2018-07-21T05:21:30.376Z,21.50
2018-07-21T05:23:33.516Z,21.50
2018-07-21T05:25:36.660Z,21.50
2018-07-21T05:27:39.796Z,21.60
2018-07-21T05:29:43.319Z,21.60
2018-07-21T05:31:46.454Z,21.60
2018-07-21T05:33:49.792Z,21.60
2018-07-21T05:35:53.037Z,21.60
2018-07-21T05:37:56.172Z,21.70
2018-07-21T05:39:59.328Z,21.70
2018-07-21T05:42:02.455Z,21.80
2018-07-21T05:44:05.636Z,21.80
2018-07-21T05:46:09.024Z,21.80
2018-07-21T05:48:12.171Z,21.90
2018-07-21T05:50:15.351Z,22.00
2018-07-21T05:52:18.492Z,22.10
2018-07-21T05:54:21.634Z,22.20
2018-07-21T05:56:24.880Z,22.30
2018-07-21T05:58:28.023Z,22.30
2018-07-21T06:04:37.104Z,22.60
2018-07-21T06:06:40.240Z,22.70
2018-07-21T06:08:43.392Z,22.70
2018-07-21T06:10:46.540Z,22.70
2018-07-21T06:12:49.751Z,22.80
2018-07-21T06:14:52.895Z,22.90
2018-07-21T06:16:56.068Z,23.00
2018-07-21T06:18:59.195Z,23.10
2018-07-21T06:21:02.343Z,23.30
2018-07-21T06:23:05.632Z,23.40
2018-07-21T06:25:08.910Z,23.40
2018-07-21T06:27:12.035Z,23.50
2018-07-21T06:29:15.163Z,23.60
2018-07-21T06:47:43.171Z,24.70
2018-07-21T06:49:46.313Z,24.80
2018-07-21T06:51:50.200Z,24.90
2018-07-21T06:53:53.368Z,25.00
2018-07-21T06:55:56.532Z,25.10
2018-07-21T06:57:59.655Z,25.20
2018-07-21T07:00:02.809Z,25.30
2018-07-21T07:02:06.368Z,25.60
2018-07-21T07:04:09.508Z,25.80
2018-07-21T07:06:12.640Z,25.80
2018-07-21T07:08:15.779Z,25.70
2018-07-21T07:10:19.006Z,25.60
2018-07-21T07:12:22.099Z,25.50
2018-07-21T07:14:25.240Z,25.40
2018-07-21T07:16:28.434Z,25.40
2018-07-21T07:18:31.628Z,25.40
2018-07-21T07:20:34.767Z,25.30
2018-07-21T07:22:37.918Z,25.40
2018-07-21T07:24:41.070Z,25.50
2018-07-21T07:26:44.248Z,25.50
2018-07-21T07:28:47.387Z,25.50
2018-07-21T07:30:50.539Z,25.50
2018-07-21T07:32:53.683Z,25.60
2018-07-21T07:34:56.826Z,25.70
2018-07-21T07:36:59.963Z,25.70
2018-07-21T07:39:03.145Z,25.60
2018-07-21T07:41:06.383Z,25.50
2018-07-21T07:43:09.556Z,25.40
2018-07-21T07:45:12.700Z,25.30
2018-07-21T07:47:15.880Z,25.40
2018-07-21T07:49:19.034Z,25.40
2018-07-21T07:51:22.189Z,25.50
2018-07-21T07:53:25.373Z,25.50
2018-07-21T07:55:33.280Z,25.50
2018-07-21T07:57:36.495Z,25.50
2018-07-21T08:01:42.590Z,25.50
2018-07-21T08:03:45.781Z,25.60
2018-07-21T08:05:48.919Z,25.60
2018-07-21T08:07:52.103Z,25.50
2018-07-21T08:09:55.263Z,25.60
2018-07-21T08:11:58.424Z,25.60
2018-07-21T08:14:01.540Z,25.80
2018-07-21T08:16:04.707Z,25.90
2018-07-21T08:18:07.937Z,25.90
2018-07-21T08:20:11.051Z,26.00
2018-07-21T08:22:14.154Z,26.30
2018-07-21T08:24:17.238Z,26.50
2018-07-21T08:26:20.338Z,26.70
2018-07-21T08:28:23.423Z,26.80
2018-07-21T08:30:26.515Z,26.90
2018-07-21T08:32:29.621Z,27.00
2018-07-21T08:34:32.743Z,27.10
2018-07-21T08:36:35.852Z,27.20
2018-07-21T08:38:38.940Z,27.40
2018-07-21T08:40:42.046Z,27.50
2018-07-21T08:42:45.145Z,27.60
2018-07-21T08:44:48.236Z,27.70
2018-07-21T08:46:51.427Z,27.80
2018-07-21T08:48:54.525Z,27.90
2018-07-21T08:50:57.663Z,27.80
2018-07-21T08:53:00.757Z,27.70
2018-07-21T08:55:03.856Z,27.80
2018-07-21T08:57:06.968Z,27.90
2018-07-21T08:59:10.072Z,27.90
2018-07-21T09:01:13.172Z,27.90
2018-07-21T09:03:16.276Z,27.90
2018-07-21T09:19:39.904Z,28.60
2018-07-21T09:21:43.013Z,28.60
2018-07-21T09:23:46.107Z,28.50
2018-07-21T09:25:49.207Z,28.40
2018-07-21T09:27:52.299Z,28.40
2018-07-21T09:29:55.455Z,28.40
2018-07-21T09:31:58.533Z,28.50
2018-07-21T09:34:01.691Z,28.50
2018-07-21T09:36:04.731Z,28.30
2018-07-21T09:38:07.815Z,28.40
2018-07-21T09:40:10.955Z,28.70
2018-07-21T09:42:14.004Z,29.00
2018-07-21T09:44:17.112Z,29.20
2018-07-21T09:46:20.215Z,29.30
2018-07-21T09:48:23.299Z,29.30
2018-07-21T09:50:26.398Z,29.20
2018-07-21T09:52:29.488Z,29.20
2018-07-21T09:54:32.703Z,29.10
2018-07-21T09:56:35.787Z,29.10
2018-07-21T09:58:38.912Z,29.10
2018-07-21T10:00:47.219Z,29.00
2018-07-21T10:02:50.359Z,29.00
2018-07-21T10:04:53.653Z,28.90
2018-07-21T10:06:56.793Z,28.80
2018-07-21T10:08:59.946Z,28.80
2018-07-21T10:13:06.580Z,29.10
2018-07-21T10:15:09.747Z,29.30
2018-07-21T10:17:12.875Z,29.40
2018-07-21T10:19:16.028Z,29.30
2018-07-21T10:27:39.063Z,29.40
2018-07-21T10:29:42.223Z,29.70
2018-07-21T10:31:45.363Z,29.90
2018-07-21T10:33:48.495Z,30.10
2018-07-21T10:35:51.674Z,30.20
2018-07-21T10:37:54.767Z,30.20
2018-07-21T10:39:57.922Z,30.20
2018-07-21T10:44:04.021Z,29.90
2018-07-21T10:46:07.355Z,29.90
2018-07-21T10:48:10.513Z,30.10
2018-07-21T10:50:13.648Z,30.40
2018-07-21T10:52:16.795Z,30.80
2018-07-21T10:54:19.940Z,31.00
2018-07-21T10:56:23.075Z,30.80
2018-07-21T10:58:26.249Z,30.70
2018-07-21T11:00:29.412Z,30.70
2018-07-21T11:02:32.573Z,30.70
2018-07-21T11:04:35.738Z,30.90
2018-07-21T11:06:38.895Z,30.60
2018-07-21T11:08:42.048Z,30.60
2018-07-21T11:10:45.215Z,30.80
2018-07-21T11:12:48.336Z,31.00
2018-07-21T11:14:51.500Z,31.20
2018-07-21T11:16:54.642Z,31.30
2018-07-21T11:18:57.812Z,31.20
2018-07-21T11:21:00.965Z,31.10
2018-07-21T11:23:04.103Z,31.30
2018-07-21T11:25:09.231Z,31.50
2018-07-21T11:27:12.351Z,31.50
2018-07-21T11:29:15.506Z,31.60
2018-07-21T11:33:21.571Z,31.60
2018-07-21T11:35:24.900Z,31.40
2018-07-21T11:37:27.874Z,31.30
2018-07-21T11:39:31.016Z,31.00
2018-07-21T11:41:34.196Z,30.90
2018-07-21T11:43:37.333Z,30.80
2018-07-21T11:45:40.478Z,30.80
2018-07-21T11:47:43.641Z,30.70
2018-07-21T11:49:46.808Z,30.70
2018-07-21T11:51:49.931Z,30.70
2018-07-21T11:53:53.079Z,30.80
2018-07-21T11:57:59.135Z,31.10
2018-07-21T12:00:02.394Z,31.20
2018-07-21T12:02:05.475Z,31.10
2018-07-21T12:04:08.579Z,30.60
2018-07-21T12:08:14.558Z,30.40
2018-07-21T12:10:17.672Z,30.40
2018-07-21T12:12:20.755Z,30.50
2018-07-21T12:16:26.759Z,31.00
2018-07-21T12:18:29.878Z,31.10
2018-07-21T12:20:32.963Z,31.00
2018-07-21T12:22:36.079Z,31.10
2018-07-21T12:24:39.184Z,31.20
2018-07-21T12:26:42.288Z,31.20
2018-07-21T12:28:45.387Z,31.30
2018-07-21T12:32:51.425Z,31.20
2018-07-21T12:34:54.579Z,31.10
2018-07-21T12:36:57.652Z,31.20
2018-07-21T12:39:00.747Z,31.30
2018-07-21T12:43:06.723Z,31.30
2018-07-21T12:45:09.820Z,31.30
2018-07-21T12:47:12.908Z,31.40
2018-07-21T12:49:15.992Z,31.50
2018-07-21T12:51:19.086Z,31.50
2018-07-21T12:53:22.172Z,31.50
2018-07-21T12:57:28.147Z,31.50
2018-07-21T13:01:34.236Z,31.60
2018-07-21T13:05:40.295Z,31.50
2018-07-21T13:09:46.379Z,31.80
2018-07-21T13:11:51.311Z,31.80
2018-07-21T13:15:57.253Z,32.10
2018-07-21T13:18:00.331Z,32.40
2018-07-21T13:20:03.435Z,32.50
2018-07-21T13:22:07.139Z,32.80
2018-07-21T13:28:16.051Z,32.90
2018-07-21T13:30:19.143Z,32.90
2018-07-21T13:38:30.976Z,33.70
2018-07-21T13:42:36.964Z,33.60
2018-07-21T13:44:40.057Z,33.50
2018-07-21T13:46:43.144Z,33.90
2018-07-21T13:48:46.239Z,34.60
2018-07-21T13:50:49.894Z,34.90
2018-07-21T13:52:52.979Z,35.00
2018-07-21T13:54:56.093Z,35.10
2018-07-21T13:56:59.163Z,35.40
2018-07-21T13:59:02.260Z,35.40
2018-07-21T14:01:05.379Z,35.40
2018-07-21T14:03:08.463Z,35.40
2018-07-21T14:05:11.560Z,35.30
2018-07-21T14:07:14.656Z,35.00
2018-07-21T14:09:17.748Z,34.90
2018-07-21T14:17:29.600Z,34.50
2018-07-21T14:19:32.748Z,34.50
2018-07-21T14:21:35.869Z,34.50
2018-07-21T14:23:39.983Z,34.50
2018-07-21T14:25:43.084Z,34.50
2018-07-21T14:27:46.173Z,34.50
2018-07-21T14:29:49.317Z,34.40
2018-07-21T14:31:52.359Z,34.50
2018-07-21T14:33:55.472Z,34.40
2018-07-21T14:38:01.517Z,34.00
2018-07-21T14:40:04.907Z,33.90
2018-07-21T14:42:08.000Z,33.90
2018-07-21T14:46:14.303Z,33.60
2018-07-21T14:48:17.624Z,33.70
2018-07-21T14:50:20.746Z,33.80
2018-07-21T14:52:23.851Z,34.00
2018-07-21T14:54:26.984Z,34.10
2018-07-21T14:56:30.104Z,34.30
2018-07-21T14:58:33.231Z,34.50
2018-07-21T15:00:36.567Z,34.60
2018-07-21T15:02:39.737Z,34.50
2018-07-21T15:04:42.834Z,34.40
2018-07-21T15:06:46.002Z,34.30
2018-07-21T15:08:49.041Z,34.20
2018-07-21T15:10:52.140Z,34.10
2018-07-21T15:17:01.360Z,33.70
2018-07-21T15:19:04.496Z,33.60
2018-07-21T15:21:07.623Z,33.60
2018-07-21T15:23:10.692Z,33.50
2018-07-21T15:25:13.849Z,33.50
2018-07-21T15:29:20.163Z,33.20
2018-07-21T15:31:23.346Z,33.10
2018-07-21T15:33:26.408Z,33.00
2018-07-21T15:35:29.505Z,32.90
2018-07-21T15:37:32.595Z,32.80
2018-07-21T15:39:35.704Z,32.80
2018-07-21T15:41:38.995Z,32.70
2018-07-21T15:43:42.100Z,32.60
2018-07-21T15:45:45.191Z,32.40
2018-07-21T15:51:55.268Z,31.30
2018-07-21T15:53:58.364Z,31.00
2018-07-21T15:56:01.447Z,30.70
2018-07-21T15:58:04.557Z,30.40
2018-07-21T16:00:07.976Z,30.10
2018-07-21T16:02:11.115Z,29.80
2018-07-21T16:04:14.280Z,29.50
2018-07-21T16:06:17.456Z,29.30
2018-07-21T16:41:10.112Z,28.90
2018-07-21T16:43:13.247Z,29.00
2018-07-21T16:45:16.399Z,29.20
2018-07-21T16:47:19.544Z,29.20
2018-07-21T16:49:22.693Z,29.30
2018-07-21T16:51:25.918Z,29.30
2018-07-21T16:53:29.200Z,29.30
2018-07-21T16:55:32.355Z,29.20
2018-07-21T16:57:35.511Z,29.10
2018-07-21T16:59:39.168Z,29.00
2018-07-21T17:01:42.267Z,29.00
2018-07-21T17:05:48.242Z,28.90
2018-07-21T17:07:51.402Z,28.70
2018-07-21T17:09:54.467Z,28.60
2018-07-21T17:11:57.543Z,28.40
2018-07-21T17:14:00.639Z,28.30
2018-07-21T17:18:06.644Z,28.10
2018-07-21T17:40:39.374Z,26.90
2018-07-21T17:46:48.312Z,26.40
2018-07-21T17:48:51.420Z,26.20
2018-07-21T17:50:54.616Z,26.10
2018-07-21T17:52:57.729Z,26.00
2018-07-21T17:55:00.907Z,26.00
2018-07-21T17:57:04.092Z,25.90
2018-07-21T17:59:07.239Z,25.90
2018-07-21T18:01:10.336Z,25.60
2018-07-21T18:29:51.884Z,25.00
2018-07-21T18:31:55.020Z,24.90
2018-07-21T18:33:58.167Z,24.80
2018-07-21T18:36:01.298Z,24.70
2018-07-21T18:38:04.623Z,24.60
2018-07-21T18:40:07.950Z,24.60
2018-07-21T18:42:11.052Z,24.50
2018-07-21T18:44:14.197Z,24.40
2018-07-21T18:46:17.358Z,24.40
2018-07-21T18:48:20.503Z,24.30
2018-07-21T18:50:24.576Z,24.30
2018-07-21T18:52:27.763Z,24.20
2018-07-21T18:54:31.664Z,24.20
2018-07-21T18:56:34.848Z,24.20
2018-07-21T18:58:39.108Z,24.20
2018-07-21T19:00:42.304Z,24.10
2018-07-21T19:02:45.407Z,24.10
2018-07-21T19:04:48.516Z,24.00
2018-07-21T19:06:51.632Z,23.90
2018-07-21T19:09:00.655Z,23.90
2018-07-21T19:11:03.749Z,23.90
2018-07-21T19:44:07.497Z,23.50
2018-07-21T19:46:11.040Z,23.40
2018-07-21T19:48:14.123Z,23.30
2018-07-21T19:50:17.243Z,23.20
2018-07-21T19:54:23.228Z,23.10
2018-07-21T19:56:26.332Z,23.10
2018-07-21T19:58:29.419Z,23.00
2018-07-21T20:00:32.519Z,22.90
2018-07-21T20:02:35.932Z,22.90
2018-07-21T20:04:39.080Z,22.80
2018-07-21T20:06:42.215Z,22.80
2018-07-21T20:08:45.351Z,22.80
2018-07-21T20:10:48.644Z,22.70
2018-07-21T20:16:58.667Z,22.40
2018-07-21T20:19:01.800Z,22.30
2018-07-21T21:30:48.724Z,22.40
2018-07-21T21:32:51.884Z,21.60
2018-07-21T21:34:55.031Z,21.50
2018-07-21T21:36:58.168Z,21.40
2018-07-21T21:39:01.450Z,21.40
2018-07-21T21:41:04.591Z,21.40
2018-07-21T21:43:07.729Z,21.30
2018-07-21T21:45:10.883Z,21.30
2018-07-21T21:47:14.051Z,21.30
2018-07-21T21:49:17.202Z,21.20
2018-07-21T21:51:20.449Z,21.20
2018-07-21T21:53:23.607Z,21.20
2018-07-21T21:55:26.804Z,21.20
2018-07-21T21:57:30.083Z,21.20
2018-07-21T21:59:33.242Z,21.20
2018-07-21T22:01:36.505Z,21.20
2018-07-21T22:03:39.635Z,21.20
2018-07-21T22:05:42.766Z,21.20
2018-07-21T22:07:45.923Z,21.20
2018-07-21T22:09:49.063Z,21.10
2018-07-21T22:11:52.209Z,21.10
2018-07-21T22:13:55.346Z,21.10
2018-07-21T22:15:59.096Z,21.10
2018-07-21T22:18:02.236Z,21.00
2018-07-21T22:20:05.672Z,21.00
2018-07-21T22:22:08.836Z,21.00
2018-07-21T22:24:12.008Z,21.00
2018-07-21T22:26:15.199Z,21.00
2018-07-21T22:28:18.311Z,20.90
2018-07-21T22:30:21.896Z,20.90
2018-07-21T22:32:25.055Z,20.90
2018-07-21T22:34:28.227Z,20.90
2018-07-21T22:36:31.320Z,20.90
2018-07-21T22:38:34.462Z,20.80
2018-07-21T22:40:37.600Z,20.80
2018-07-21T22:42:40.751Z,20.80
2018-07-21T22:44:43.953Z,20.80
2018-07-21T22:46:47.068Z,20.80
2018-07-21T22:48:50.191Z,20.80
2018-07-21T22:50:53.339Z,20.80
2018-07-21T22:52:56.481Z,20.80
2018-07-21T22:54:59.615Z,20.80
2018-07-21T22:57:02.770Z,20.80
2018-07-21T22:59:06.279Z,20.80
2018-07-21T23:01:09.410Z,20.70
2018-07-21T23:03:12.535Z,20.70
2018-07-21T23:05:15.635Z,20.70
2018-07-21T23:07:18.822Z,20.70
2018-07-21T23:09:21.927Z,20.70
2018-07-21T23:11:25.007Z,20.70
2018-07-21T23:13:28.102Z,20.70
2018-07-21T23:15:31.196Z,20.60
2018-07-21T23:17:34.339Z,20.60
2018-07-21T23:19:37.450Z,20.60
2018-07-21T23:21:40.532Z,20.50
2018-07-21T23:23:43.660Z,20.50
2018-07-21T23:25:46.752Z,20.50
2018-07-21T23:27:49.859Z,20.50
2018-07-21T23:29:52.971Z,20.50
2018-07-21T23:31:56.069Z,20.50
2018-07-21T23:33:59.176Z,20.50
2018-07-21T23:36:02.264Z,20.40
2018-07-21T23:38:05.363Z,20.40
2018-07-21T23:40:08.482Z,20.40
2018-07-21T23:42:11.609Z,20.40
2018-07-21T23:44:14.702Z,20.40
2018-07-21T23:46:17.796Z,20.30
2018-07-21T23:48:20.912Z,20.30
2018-07-21T23:50:24.048Z,20.30
2018-07-21T23:52:27.139Z,20.30
2018-07-21T23:54:30.233Z,20.30
2018-07-21T23:56:33.315Z,20.20
2018-07-21T23:58:36.409Z,20.20
